Flight Track Log - Related Links

Times and Time Zones

All times are in EDT time to prevent confusion due to time zone crossing. See the DAL1149 flight status page for this flight to view local times or setup timezone preferences in your user account.


Time Position Orientation Groundspeed Altitude Reporting Facility
EDT Latitude Longitude Course Direction KTS MPH feet Rate Location/Type
Sat 07:55:51 PM 33.9500 -118.4500 261° West 140 161 1,700  Level Southern California TRACON
Sat 07:57:06 PM 33.9383 -118.5400 263° West 211 243 2,800 1,556 Climbing Los Angeles Center
Sat 07:58:06 PM 33.9281 -118.6422 261° West 258 297 5,200 2,400 Climbing Los Angeles Center
Sat 07:59:06 PM 33.9156 -118.7369 266° West 280 322 7,600 2,400 Climbing Los Angeles Center
Sat 08:00:06 PM 33.9092 -118.8344 263° West 291 335 10,000 1,900 Climbing Los Angeles Center
Sat 08:01:06 PM 33.8986 -118.9392 261° West 298 343 11,400 1,150 Climbing Los Angeles Center
Sat 08:02:06 PM 33.8858 -119.0414 263° West 320 368 12,300 1,150 Climbing Los Angeles Center
Sat 08:03:06 PM 33.8722 -119.1708 263° West 360 414 13,700 1,600 Climbing Los Angeles Center
Sat 08:04:06 PM 33.8583 -119.3031 262° West 389 448 15,500 1,900 Climbing Los Angeles Center
Sat 08:05:06 PM 33.8422 -119.4325 264° West 399 459 17,500 1,850 Climbing Los Angeles Center
Sat 08:06:06 PM 33.8303 -119.5644 263° West 404 465 19,200 7,250 Climbing Los Angeles Center
Sat 08:07:06 PM 33.8158 -119.7039 261° West 409 471 32,000 1,300 Climbing Los Angeles Center
Sat 08:08:06 PM 33.7969 -119.8456 264° West 422 486 21,800 -4,500 Descending Los Angeles Center
Sat 08:09:06 PM 33.7839 -120.0025 265° West 427 491 23,000 1,200 Climbing Los Angeles Center
Sat 08:10:06 PM 33.7728 -120.1444 263° West 427 491 24,200 1,190 Climbing Los Angeles Center
Sat 08:11:07 PM 33.7575 -120.2886 262° West 433 498 25,400 900 Climbing Los Angeles Center
Sat 08:12:06 PM 33.7400 -120.4350 263° West 443 510 26,000 504 Climbing Los Angeles Center
Sat 08:13:06 PM 33.7242 -120.5867 262° West 450 518 26,400 900 Climbing Los Angeles Center
Sat 08:14:06 PM 33.7061 -120.7356 261° West 457 526 27,800 1,300 Climbing Los Angeles Center
Sat 08:15:06 PM 33.6878 -120.8817 263° West 457 526 29,000 1,150 Climbing Los Angeles Center
Sat 08:16:06 PM 33.6739 -121.0258 261° West 452 520 30,100 1,050 Climbing Los Angeles Center
Sat 08:17:06 PM 33.6556 -121.1669 262° West 446 513 31,100 900 Climbing Los Angeles Center
Sat 08:18:06 PM 33.6392 -121.3083 261° West 441 507 31,900 450 Climbing Los Angeles Center
Sat 08:19:06 PM 33.6206 -121.4517 261° West 441 507 32,000 50 Climbing Los Angeles Center
Sat 08:20:06 PM 33.6047 -121.5728 262° West 435 501 32,000  Level Los Angeles Center
Sat 08:21:08 PM 33.5878 -121.7164 261° West 435 501 32,000  Level Los Angeles Center
Sat 08:22:06 PM 33.5689 -121.8547 263° West 430 495 32,000  Level Los Angeles Center
Sat 08:23:06 PM 33.5536 -121.9983 263° West 436 502 32,000  Level Los Angeles Center
Sat 08:24:06 PM 33.5383 -122.1392 258° West 436 502 32,000  Level Los Angeles Center
Sat 08:25:06 PM 33.5147 -122.2772 261° West 436 502 32,000  Level Los Angeles Center
Sat 08:26:06 PM 33.4972 -122.4153 263° West 431 496 32,000  Level Los Angeles Center
Sat 08:27:06 PM 33.4811 -122.5636 256° West 436 502 32,000  Level Los Angeles Center
Sat 08:42:10 PM 33.0667 -124.5167 255° West 442 509 32,000  Level Oakland Oceanic (ODAPS)
Sat 09:37:23 PM 31.1000 -132.1333 251° West 477 549 32,000  Level Oakland Oceanic (ODAPS)
Sat 10:27:55 PM 28.7000 -139.4333 247° West 492 566 32,000  Level Oakland Oceanic (ODAPS)
Sat 11:15:48 PM 26.0000 -146.1667 244° Southwest 481 554 32,000  Level Oakland Oceanic (ODAPS)
Sun 12:04:17 AM 22.8833 -152.8667 242° Southwest 500 575 32,000  Level Honolulu Center
Sun 12:05:17 AM 22.8167 -153.0000 255° West 480 552 32,000  Level Honolulu Center
Sun 12:06:18 AM 22.7833 -153.1333 250° West 490 564 32,000  Level Honolulu Center
Sun 12:07:18 AM 22.7333 -153.2833 255° West 490 564 32,000  Level Honolulu Center
Sun 12:08:19 AM 22.7000 -153.4167 255° West 490 564 32,000  Level Honolulu Center
Sun 12:09:19 AM 22.6667 -153.5500 250° West 490 564 32,000  Level Honolulu Center
Sun 12:10:19 AM 22.6167 -153.7000 255° West 480 552 32,000  Level Honolulu Center
Sun 12:11:20 AM 22.5833 -153.8333 248° West 480 552 32,000  Level Honolulu Center
Sun 12:12:20 AM 22.5333 -153.9667 248° West 480 552 32,000  Level Honolulu Center
Sun 12:13:20 AM 22.4833 -154.1000 257° West 480 552 32,000  Level Honolulu Center
Sun 12:14:20 AM 22.4500 -154.2500 248° West 490 564 32,000  Level Honolulu Center
Sun 12:15:21 AM 22.4000 -154.3833 255° West 480 552 32,000  Level Honolulu Center
Sun 12:16:21 AM 22.3667 -154.5167 250° West 490 564 32,000  Level Honolulu Center
Sun 12:17:21 AM 22.3167 -154.6667 255° West 480 552 32,000  Level Honolulu Center
Sun 12:18:22 AM 22.2833 -154.8000 248° West 480 552 32,000  Level Honolulu Center
Sun 12:19:22 AM 22.2333 -154.9333 255° West 480 552 32,000  Level Honolulu Center
Sun 12:20:23 AM 22.2000 -155.0667 248° West 480 552 32,000  Level Honolulu Center
Sun 12:21:23 AM 22.1500 -155.2000 250° West 480 552 32,000  Level Honolulu Center
Sun 12:22:23 AM 22.1000 -155.3500 255° West 480 552 32,000  Level Honolulu Center
Sun 12:23:24 AM 22.0667 -155.4833 248° West 480 552 32,000  Level Honolulu Center
Sun 12:24:24 AM 22.0167 -155.6167 255° West 480 552 32,000  Level Honolulu Center
Sun 12:25:24 AM 21.9833 -155.7500 248° West 480 552 32,000  Level Honolulu Center
Sun 12:26:24 AM 21.9333 -155.8833 248° West 480 552 32,000  Level Honolulu Center
Sun 12:27:25 AM 21.8833 -156.0167 257° West 480 552 32,000  Level Honolulu Center
Sun 12:28:25 AM 21.8500 -156.1667 250° West 480 552 32,000 -198 Level Honolulu Center
Sun 12:29:26 AM 21.8000 -156.3167 248° West 480 552 31,600 -1,488 Descending Honolulu Center
Sun 12:30:26 AM 21.7500 -156.4500 248° West 480 552 29,000 -2,350 Descending Honolulu Center
Sun 12:31:26 AM 21.7000 -156.5833 253° West 470 541 26,900 -2,132 Descending Honolulu Center
Sun 12:32:27 AM 21.6667 -156.7000 248° West 460 529 24,700 -2,281 Descending Honolulu Center
Sun 12:33:27 AM 21.6167 -156.8333 255° West 440 506 22,300 -2,350 Descending Honolulu Center
Sun 12:34:27 AM 21.5833 -156.9667 253° West 430 495 20,000 -2,281 Descending Honolulu Center
Sun 12:35:28 AM 21.5500 -157.0833 245° Southwest 420 483 17,700 -2,132 Descending Honolulu Center
Sun 12:36:28 AM 21.5000 -157.2000 253° West 410 472 15,700 -2,033 Descending Honolulu Center
Sun 12:37:29 AM 21.4667 -157.3167 250° West 400 460 13,600 -1,983 Descending Honolulu Center
Sun 12:38:29 AM 21.4333 -157.4167 250° West 380 437 11,700 -1,750 Descending Honolulu Center
Sun 12:39:29 AM 21.4000 -157.5167 242° Southwest 360 414 10,100 -950 Descending Honolulu Center
Sun 12:40:29 AM 21.3500 -157.6167 247° West 320 368 9,800 -793 Descending Honolulu Center
Sun 12:41:30 AM 21.3167 -157.7000 242° Southwest 290 334 8,500 -843 Descending Honolulu Center
Sun 12:42:30 AM 21.2833 -157.7667 247° West 260 299 8,100 -397 Descending Honolulu Center
Sun 12:43:31 AM 21.2500 -157.8500 270° West 260 299 7,700 -893 Descending Honolulu Center
Sun 12:44:31 AM 21.2500 -157.9167 270° West 230 265 6,300 -1,500 Descending Honolulu Center
Sun 12:45:31 AM 21.2500 -157.9833 270° West 200 230 4,700 -1,587 Descending Honolulu Center
Sun 12:46:32 AM 21.2500 -158.0333 360° North 210 242 3,100 -1,041 Descending Honolulu Center
Sun 12:47:32 AM 21.3000 -158.0333 62° Northeast 190 219 2,600 -850 Descending Honolulu Center
Sun 12:48:32 AM 21.3167 -158.0000 90° East 150 173 1,400 -1,041 Descending Honolulu Center
Sun 12:49:33 AM 21.3167 -157.9500 90° East 130 150 500 -885 Descending Honolulu Center

Login

Don't have an account? Register now (free) for customized features, flight alerts, and more!